Time;durP1;ratioP1;P1;durP2;ratioP2;P2;SDS_P1;SDS_P2;PMS_P1;PMS_P2;Temp;Humidity;BMP_temperature;BMP_pressure;BME280_temperature;BME280_humidity;BME280_pressure;Samples;Min_cycle;Max_cycle;Signal;HPM_P1;HPM_P2
2023/03/02 00:01:11;;;;;;;10.23;4.45;;;;;;;-1.91;88.40;102042.25;6002664;28;20039;-71
2023/03/02 00:04:10;;;;;;;8.45;3.45;;;;;;;-1.93;87.31;102028.44;6000742;28;20406;-69
2023/03/02 00:07:08;;;;;;;7.38;3.42;;;;;;;-1.88;87.42;102056.03;6002647;28;20113;-71
2023/03/02 00:10:04;;;;;;;10.00;4.45;;;;;;;-1.87;87.94;102051.66;6001454;28;20463;-70
2023/03/02 00:12:59;;;;;;;11.70;4.90;;;;;;;-2.01;87.79;102043.34;6000355;28;20031;-70
2023/03/02 00:15:55;;;;;;;12.33;4.03;;;;;;;-2.03;87.81;102037.31;6002276;28;20031;-71
2023/03/02 00:18:50;;;;;;;13.33;4.20;;;;;;;-2.12;87.76;102055.72;6002443;28;20031;-70
2023/03/02 00:21:45;;;;;;;9.95;4.75;;;;;;;-2.25;88.34;102049.91;5994428;28;20050;-71
2023/03/02 00:24:41;;;;;;;8.43;4.47;;;;;;;-2.22;89.25;102056.78;5997715;28;20058;-70
2023/03/02 00:27:36;;;;;;;12.07;4.20;;;;;;;-2.26;89.78;102042.16;6002433;28;20273;-71
2023/03/02 00:30:31;;;;;;;11.18;4.40;;;;;;;-2.19;90.30;102035.94;6001882;28;20038;-71
2023/03/02 00:33:27;;;;;;;13.93;5.23;;;;;;;-2.17;91.17;102044.53;6001761;28;20421;-71
2023/03/02 00:36:23;;;;;;;9.00;3.80;;;;;;;-2.32;91.22;102037.06;6001909;28;20046;-70
2023/03/02 00:39:18;;;;;;;12.10;4.90;;;;;;;-2.36;92.24;102040.63;6002371;28;20043;-71
2023/03/02 00:42:14;;;;;;;12.43;4.18;;;;;;;-2.33;92.88;102049.19;6001403;28;20101;-72
2023/03/02 00:45:09;;;;;;;14.97;4.17;;;;;;;-2.48;93.87;102050.38;6001894;28;20046;-72
2023/03/02 00:48:05;;;;;;;10.55;3.67;;;;;;;-2.23;94.65;102047.28;6001960;28;20034;-71
2023/03/02 00:51:00;;;;;;;10.52;4.18;;;;;;;-2.31;94.40;102054.38;6001744;28;20042;-72
2023/03/02 00:53:55;;;;;;;13.33;3.50;;;;;;;-2.29;96.30;102053.47;6001262;28;20039;-72
2023/03/02 00:56:51;;;;;;;12.73;4.43;;;;;;;-2.43;95.82;102050.28;6002119;28;20042;-70
2023/03/02 00:59:46;;;;;;;12.73;4.97;;;;;;;-2.74;94.56;102044.84;6001839;28;20046;-72
2023/03/02 01:02:42;;;;;;;11.70;4.27;;;;;;;-2.73;95.14;102038.78;6001027;28;20097;-71
2023/03/02 01:05:38;;;;;;;9.98;4.18;;;;;;;-3.27;95.38;102050.16;6001566;28;20281;-73
2023/03/02 01:08:33;;;;;;;11.43;3.37;;;;;;;-3.47;95.72;102034.06;6003382;28;20034;-70
2023/03/02 01:11:28;;;;;;;8.60;4.07;;;;;;;-3.46;97.06;102048.72;6006241;28;20037;-70
2023/03/02 01:14:24;;;;;;;10.10;3.83;;;;;;;-3.74;97.06;102036.22;6005700;28;20031;-72
2023/03/02 01:17:20;;;;;;;12.52;4.60;;;;;;;-3.90;97.93;102026.97;6006325;28;20022;-71
2023/03/02 01:20:16;;;;;;;10.95;4.43;;;;;;;-3.89;98.47;102031.28;6005182;28;20030;-71
2023/03/02 01:23:11;;;;;;;15.10;4.32;;;;;;;-3.96;99.29;102023.59;6004956;28;21837;-72
2023/03/02 01:26:07;;;;;;;10.07;4.47;;;;;;;-3.66;100.00;102013.63;6006016;28;20031;-71
2023/03/02 01:29:03;;;;;;;8.52;3.95;;;;;;;-3.63;99.59;102033.44;6005728;28;20787;-73
2023/03/02 01:31:58;;;;;;;13.60;3.78;;;;;;;-3.61;99.34;102019.59;6005105;28;20038;-72
2023/03/02 01:34:53;;;;;;;11.03;4.17;;;;;;;-3.39;99.29;102027.00;6005685;28;20043;-71
2023/03/02 01:37:49;;;;;;;10.33;3.93;;;;;;;-3.02;99.90;102017.72;6005593;28;20022;-71
2023/03/02 01:40:44;;;;;;;13.37;3.97;;;;;;;-3.03;99.37;102034.16;6005613;28;20041;-72
2023/03/02 01:43:39;;;;;;;12.93;4.13;;;;;;;-3.06;99.40;102010.84;6004590;28;20035;-73
2023/03/02 01:46:35;;;;;;;13.50;4.20;;;;;;;-2.83;100.00;102015.63;6005549;28;20129;-72
2023/03/02 01:49:33;;;;;;;12.23;4.53;;;;;;;-2.84;99.95;102022.56;6005192;28;20034;-72
2023/03/02 01:52:30;;;;;;;13.63;4.60;;;;;;;-2.69;100.00;102009.25;6003301;28;20669;-71
2023/03/02 01:55:28;;;;;;;10.60;4.25;;;;;;;-2.67;99.62;102019.63;6003769;28;20415;-71
2023/03/02 01:58:24;;;;;;;12.48;3.90;;;;;;;-2.73;99.65;102015.41;6004984;28;20081;-72
2023/03/02 02:01:20;;;;;;;11.93;4.80;;;;;;;-2.85;99.28;102013.03;6003994;28;20027;-72
2023/03/02 02:04:15;;;;;;;9.63;3.55;;;;;;;-2.77;99.25;102012.91;6002838;28;20113;-71
2023/03/02 02:07:11;;;;;;;9.27;3.90;;;;;;;-2.81;99.92;102006.91;6005145;28;20395;-73
2023/03/02 02:10:07;;;;;;;13.57;4.53;;;;;;;-2.97;98.68;102009.84;6004878;28;20530;-71
2023/03/02 02:13:02;;;;;;;9.80;4.13;;;;;;;-3.32;98.46;101994.91;6003455;28;20038;-71
2023/03/02 02:15:57;;;;;;;12.02;4.00;;;;;;;-3.66;98.98;102003.25;6004815;28;20054;-72
2023/03/02 02:18:53;;;;;;;15.23;4.60;;;;;;;-3.32;99.58;102007.88;6004513;28;20065;-72
2023/03/02 02:21:49;;;;;;;8.82;4.43;;;;;;;-3.49;100.00;102009.91;6010319;28;20047;-72
2023/03/02 02:24:57;;;;;;;12.40;4.20;;;;;;;-4.01;99.91;102010.72;6000986;28;20041;-72
2023/03/02 02:27:52;;;;;;;;;;;;;;;-3.88;100.00;102013.97;6003959;28;20027;-71
2023/03/02 02:30:51;;;;;;;13.53;4.63;;;;;;;-3.52;100.00;102015.13;6003701;28;19921;-72
2023/03/02 02:33:50;;;;;;;17.20;5.60;;;;;;;-3.19;100.00;102015.41;6003577;28;20130;-72
2023/03/02 02:36:47;;;;;;;13.93;4.07;;;;;;;-3.13;100.00;101999.75;6019484;28;20038;-70
2023/03/02 02:39:45;;;;;;;19.67;6.30;;;;;;;-3.00;100.00;102010.75;6002943;28;20042;-71
2023/03/02 02:42:42;;;;;;;26.15;7.68;;;;;;;-2.82;100.00;102009.53;6002328;28;20054;-70
2023/03/02 02:45:38;;;;;;;20.23;7.32;;;;;;;-2.81;100.00;101991.34;6003994;28;20039;-72
2023/03/02 02:48:33;;;;;;;21.60;7.87;;;;;;;-2.65;100.00;102003.13;6003731;28;20035;-71
2023/03/02 02:51:29;;;;;;;30.47;9.00;;;;;;;-2.56;100.00;101987.38;6004271;28;20034;-72
2023/03/02 02:54:25;;;;;;;22.80;8.55;;;;;;;-2.54;100.00;101992.53;6003198;28;20509;-71
2023/03/02 02:57:23;;;;;;;30.38;8.25;;;;;;;-2.32;100.00;101995.53;6018660;28;20035;-70
2023/03/02 03:00:19;;;;;;;28.33;10.05;;;;;;;-2.36;100.00;101984.34;6018485;28;20039;-72
2023/03/02 03:03:28;;;;;;;31.42;10.75;;;;;;;-2.29;100.00;101996.31;6017399;28;20031;-71
2023/03/02 03:06:27;;;;;;;37.38;10.65;;;;;;;-2.20;100.00;102003.06;6001938;28;20038;-72
2023/03/02 03:09:23;;;;;;;63.83;13.18;;;;;;;-2.28;100.00;101986.78;6003815;28;20490;-71
2023/03/02 03:12:21;;;;;;;43.60;12.02;;;;;;;-2.14;100.00;101993.38;6002848;28;20030;-71
2023/03/02 03:15:16;;;;;;;40.47;12.13;;;;;;;-2.20;100.00;101990.91;6002112;28;20039;-71
2023/03/02 03:18:12;;;;;;;36.50;11.73;;;;;;;-2.11;100.00;101989.84;6003432;28;20033;-71
2023/03/02 03:21:07;;;;;;;59.15;13.15;;;;;;;-2.08;100.00;101977.66;6000281;28;20281;-71
2023/03/02 03:24:03;;;;;;;45.23;11.23;;;;;;;-2.06;100.00;101982.81;5994113;28;20490;-72
2023/03/02 03:26:59;;;;;;;45.53;11.07;;;;;;;-2.11;100.00;101977.72;6003406;28;20026;-71
2023/03/02 03:29:54;;;;;;;44.55;13.20;;;;;;;-2.02;100.00;101985.31;6002588;28;20166;-72
2023/03/02 03:32:49;;;;;;;41.47;12.73;;;;;;;-1.96;100.00;101992.13;6002473;28;20451;-71
2023/03/02 03:35:45;;;;;;;59.97;15.17;;;;;;;-1.97;100.00;101993.00;6002711;28;20038;-71
2023/03/02 03:38:40;;;;;;;47.33;14.63;;;;;;;-2.00;100.00;101985.25;6002964;28;20102;-72
2023/03/02 03:41:35;;;;;;;69.37;14.00;;;;;;;-1.96;100.00;101994.72;6002981;28;20072;-71
2023/03/02 03:44:31;;;;;;;45.00;13.47;;;;;;;-1.94;100.00;101998.13;6001926;28;20482;-72
2023/03/02 03:47:26;;;;;;;44.88;14.23;;;;;;;-1.94;100.00;101992.94;6002829;28;20274;-74
2023/03/02 03:50:21;;;;;;;55.83;15.10;;;;;;;-1.95;100.00;101981.66;6002305;28;20042;-72
2023/03/02 03:53:17;;;;;;;74.13;16.08;;;;;;;-1.93;100.00;101989.44;6002228;28;20031;-73
2023/03/02 03:56:12;;;;;;;48.07;13.60;;;;;;;-1.83;100.00;102004.78;6002780;28;20038;-72
2023/03/02 03:59:09;;;;;;;49.13;14.87;;;;;;;-1.88;100.00;102008.38;6002507;28;20046;-72
2023/03/02 04:02:04;;;;;;;45.65;13.73;;;;;;;-1.86;100.00;102002.25;6002091;28;20482;-72
2023/03/02 04:05:05;;;;;;;59.67;15.23;;;;;;;-1.84;100.00;102005.66;6002177;28;20039;-73
2023/03/02 04:08:00;;;;;;;49.70;16.50;;;;;;;-1.78;100.00;102009.00;6002771;28;20171;-72
2023/03/02 04:10:56;;;;;;;74.85;17.95;;;;;;;-1.84;100.00;102013.47;6002588;28;20058;-72
2023/03/02 04:13:51;;;;;;;47.90;14.17;;;;;;;-1.88;100.00;101996.25;6001844;28;20037;-73
2023/03/02 04:16:46;;;;;;;56.97;16.63;;;;;;;-1.70;100.00;102005.34;6002639;28;20027;-73
2023/03/02 04:19:42;;;;;;;49.92;15.50;;;;;;;-1.85;100.00;101997.91;6000845;28;20035;-72
2023/03/02 04:22:37;;;;;;;42.67;13.90;;;;;;;-1.86;100.00;101996.19;6000581;28;20038;-72
2023/03/02 04:25:32;;;;;;;39.00;13.73;;;;;;;-1.92;100.00;101986.81;6002327;28;20035;-74
2023/03/02 04:28:28;;;;;;;36.67;13.10;;;;;;;-1.78;100.00;102004.66;6002365;28;20086;-73
2023/03/02 04:31:23;;;;;;;58.53;17.13;;;;;;;-1.83;100.00;102009.13;6002391;28;20487;-73
2023/03/02 04:34:18;;;;;;;62.57;14.33;;;;;;;-1.78;100.00;102004.66;6001233;28;20042;-72
2023/03/02 04:37:14;;;;;;;55.60;13.90;;;;;;;-1.74;100.00;102005.47;6002250;28;20035;-73
2023/03/02 04:40:11;;;;;;;65.93;16.02;;;;;;;-1.76;100.00;102004.63;6002284;28;20026;-73
2023/03/02 04:43:06;;;;;;;48.42;15.13;;;;;;;-1.80;100.00;102011.66;6001996;28;20074;-73
2023/03/02 04:46:02;;;;;;;52.03;15.43;;;;;;;-1.85;100.00;101998.75;6006968;28;20399;-74
2023/03/02 04:48:57;;;;;;;53.97;14.23;;;;;;;-1.78;100.00;101996.88;6006493;28;20046;-72
2023/03/02 04:51:52;;;;;;;43.50;13.83;;;;;;;-1.73;100.00;101995.00;6006196;28;20043;-73
2023/03/02 04:54:48;;;;;;;89.47;18.67;;;;;;;-1.74;100.00;101993.31;6006240;28;20031;-72
2023/03/02 04:57:43;;;;;;;65.40;17.10;;;;;;;-1.66;100.00;101999.19;6005807;28;20757;-72
2023/03/02 05:00:38;;;;;;;61.23;14.13;;;;;;;-1.68;100.00;102006.16;6005990;28;20386;-72
2023/03/02 05:03:34;;;;;;;92.80;17.25;;;;;;;-1.84;100.00;101973.63;6005678;28;20058;-72
2023/03/02 05:06:29;;;;;;;53.13;16.03;;;;;;;-1.69;100.00;101995.81;6006638;28;20097;-73
2023/03/02 05:09:29;;;;;;;59.17;16.70;;;;;;;-1.61;100.00;101986.94;6006287;28;20035;-75
2023/03/02 05:12:24;;;;;;;59.45;17.38;;;;;;;-1.67;100.00;101975.81;6004964;28;20041;-72
2023/03/02 05:15:21;;;;;;;65.83;16.53;;;;;;;-1.64;100.00;101986.13;6006474;28;20039;-73
2023/03/02 05:18:17;;;;;;;50.90;15.68;;;;;;;-1.71;100.00;101962.03;6006155;28;20034;-73
2023/03/02 05:21:13;;;;;;;113.60;19.80;;;;;;;-1.83;100.00;101964.94;6005936;28;20078;-74
2023/03/02 05:24:09;;;;;;;90.03;19.92;;;;;;;-1.74;100.00;101975.13;6005072;28;20039;-73
2023/03/02 05:27:04;;;;;;;58.90;15.95;;;;;;;-1.73;100.00;101982.00;6005956;28;20045;-73
2023/03/02 05:29:59;;;;;;;59.87;15.87;;;;;;;-1.66;100.00;101982.72;6006095;28;20502;-72
2023/03/02 05:32:55;;;;;;;78.95;20.67;;;;;;;-1.67;100.00;101991.41;6004136;28;20031;-72
2023/03/02 05:35:50;;;;;;;57.75;17.13;;;;;;;-1.75;100.00;101978.59;6005885;28;20085;-72
2023/03/02 05:38:45;;;;;;;72.00;16.57;;;;;;;-1.69;100.00;101981.06;6005752;28;20038;-73
2023/03/02 05:41:41;;;;;;;62.37;17.77;;;;;;;-1.79;100.00;101971.75;6005640;28;20034;-71
2023/03/02 05:44:36;;;;;;;60.88;17.00;;;;;;;-1.70;100.00;101970.69;6004999;28;20140;-74
2023/03/02 05:47:31;;;;;;;59.33;18.10;;;;;;;-1.61;100.00;101984.34;6005518;28;20490;-72
2023/03/02 05:50:27;;;;;;;72.87;17.30;;;;;;;-1.67;100.00;101981.88;6005661;28;20113;-72
2023/03/02 05:53:22;;;;;;;56.35;15.55;;;;;;;-1.61;100.00;101976.53;6004693;28;20125;-75
2023/03/02 05:56:19;;;;;;;54.30;14.53;;;;;;;-1.60;100.00;101977.38;6004256;28;20023;-71
2023/03/02 05:59:14;;;;;;;58.47;13.40;;;;;;;-1.63;100.00;101970.50;6005195;28;20079;-72
2023/03/02 06:02:10;;;;;;;61.73;15.33;;;;;;;-1.60;100.00;101983.41;6004377;28;20046;-73
2023/03/02 06:05:07;;;;;;;48.87;13.83;;;;;;;-1.55;100.00;101986.75;6005269;28;20049;-71
2023/03/02 06:08:03;;;;;;;69.00;15.48;;;;;;;-1.64;100.00;101986.13;6005068;28;20534;-74
2023/03/02 06:10:58;;;;;;;62.13;16.63;;;;;;;-1.82;100.00;101954.50;6005238;28;20034;-74
2023/03/02 06:13:54;;;;;;;39.90;13.73;;;;;;;-1.68;100.00;101987.94;6004337;28;20038;-72
2023/03/02 06:16:49;;;;;;;70.17;15.20;;;;;;;-1.56;100.00;101995.47;6004677;28;20482;-73
2023/03/02 06:19:44;;;;;;;50.77;16.47;;;;;;;-1.58;100.00;102004.19;6004700;28;20089;-74
2023/03/02 06:22:43;;;;;;;66.23;17.57;;;;;;;-1.68;100.00;102000.09;6003962;28;20726;-72
2023/03/02 06:25:42;;;;;;;37.85;15.50;;;;;;;-1.55;100.00;102010.16;6004790;28;20023;-74
2023/03/02 06:28:37;;;;;;;60.25;15.40;;;;;;;-1.54;100.00;102004.06;6004756;28;20035;-72
2023/03/02 06:31:33;;;;;;;51.60;16.33;;;;;;;-1.54;100.00;102019.69;6004452;28;20026;-74
2023/03/02 06:34:28;;;;;;;51.72;15.40;;;;;;;-1.48;100.00;102032.53;6002670;28;20027;-71
2023/03/02 06:37:24;;;;;;;52.80;13.40;;;;;;;-1.58;100.00;102023.25;6004487;28;20042;-73
2023/03/02 06:40:20;;;;;;;56.70;12.50;;;;;;;-1.54;100.00;102018.81;5998525;28;20377;-71
2023/03/02 06:43:15;;;;;;;48.67;13.32;;;;;;;-1.49;100.00;102017.81;5999892;28;20042;-73
2023/03/02 06:46:11;;;;;;;42.87;12.33;;;;;;;-1.43;100.00;102012.47;6004324;28;20027;-73
2023/03/02 06:49:07;;;;;;;43.13;12.67;;;;;;;-1.47;100.00;102010.00;6004208;28;20278;-70
2023/03/02 06:52:05;;;;;;;40.35;13.02;;;;;;;-1.40;100.00;102025.41;6003404;28;20035;-72
2023/03/02 06:55:01;;;;;;;75.57;14.20;;;;;;;-1.44;100.00;102010.75;6004159;28;20368;-73
2023/03/02 06:57:57;;;;;;;48.55;13.55;;;;;;;-1.36;100.00;102008.81;6004021;28;20042;-72
2023/03/02 07:00:52;;;;;;;49.13;12.87;;;;;;;-1.43;100.00;102006.41;6003740;28;20068;-74
2023/03/02 07:03:47;;;;;;;48.80;12.03;;;;;;;-1.41;100.00;102010.69;6003575;28;20027;-72
2023/03/02 07:06:42;;;;;;;36.23;12.57;;;;;;;-1.41;100.00;102010.69;6003200;28;20043;-73
2023/03/02 07:09:38;;;;;;;87.27;15.77;;;;;;;-1.56;100.00;101990.25;6003620;28;20290;-71
2023/03/02 07:12:34;;;;;;;44.93;12.07;;;;;;;-1.55;100.00;101991.13;6002524;28;20045;-71
2023/03/02 07:15:29;;;;;;;51.95;11.63;;;;;;;-1.40;100.00;102001.13;6003555;28;20349;-70
2023/03/02 07:18:24;;;;;;;78.70;14.80;;;;;;;-1.45;100.00;101992.59;6003290;28;20041;-72
2023/03/02 07:21:19;;;;;;;39.20;11.77;;;;;;;-1.36;100.00;102003.59;6003006;28;20047;-72
2023/03/02 07:24:15;;;;;;;42.83;10.90;;;;;;;-1.15;100.00;101985.75;6002538;28;20116;-71
2023/03/02 07:27:10;;;;;;;50.33;13.40;;;;;;;-1.05;100.00;102000.22;6003164;28;20034;-72
2023/03/02 07:30:06;;;;;;;43.38;13.70;;;;;;;-1.11;100.00;101983.00;6003135;28;20670;-73
2023/03/02 07:33:02;;;;;;;52.13;11.95;;;;;;;-1.09;100.00;101998.59;6002202;28;20027;-72
2023/03/02 07:35:57;;;;;;;38.72;11.38;;;;;;;-1.06;100.00;101990.72;6002140;28;20034;-72
2023/03/02 07:38:53;;;;;;;34.20;11.30;;;;;;;-0.96;100.00;102007.78;6002775;28;20482;-71
2023/03/02 07:42:03;;;;;;;55.92;12.07;;;;;;;-1.10;100.00;102010.75;6001426;28;20038;-73
2023/03/02 07:44:59;;;;;;;41.85;11.68;;;;;;;-1.12;100.00;101996.94;6003432;28;20126;-71
2023/03/02 07:47:55;;;;;;;66.53;14.20;;;;;;;-1.08;100.00;101993.34;6003631;28;20080;-71
2023/03/02 07:50:51;;;;;;;60.35;12.60;;;;;;;-1.08;100.00;101997.69;6003402;28;20055;-71
2023/03/02 07:53:46;;;;;;;45.85;11.32;;;;;;;-1.08;100.00;102002.88;5994221;28;20550;-72
2023/03/02 07:56:42;;;;;;;48.05;11.30;;;;;;;-1.10;100.00;102002.09;5994592;28;20022;-72
2023/03/02 07:59:37;;;;;;;115.10;16.27;;;;;;;-1.26;100.00;101986.88;6002754;28;20231;-71
2023/03/02 08:02:33;;;;;;;34.03;11.07;;;;;;;-1.13;100.00;101990.00;6001506;28;20266;-70
2023/03/02 08:05:29;;;;;;;46.22;11.68;;;;;;;-1.07;100.00;101999.41;5994720;28;20035;-71
2023/03/02 08:08:24;;;;;;;36.30;10.43;;;;;;;-1.05;100.00;101987.19;5997631;28;20042;-72
2023/03/02 08:11:20;;;;;;;37.10;10.40;;;;;;;-0.87;100.00;101997.13;6002013;28;20031;-72
2023/03/02 08:14:15;;;;;;;42.47;9.63;;;;;;;-0.87;100.00;101997.13;6001460;28;20026;-71
2023/03/02 08:17:10;;;;;;;30.40;11.03;;;;;;;-0.88;100.00;102003.22;6002295;28;20399;-71
2023/03/02 08:20:07;;;;;;;35.17;11.13;;;;;;;-0.80;100.00;101998.66;6002328;28;20041;-72
2023/03/02 08:23:02;;;;;;;28.92;10.77;;;;;;;-0.79;100.00;102002.97;5996365;28;20490;-72
2023/03/02 08:25:57;;;;;;;32.13;10.27;;;;;;;-0.81;100.00;102002.16;6002158;28;20066;-73
2023/03/02 08:28:52;;;;;;;28.23;10.53;;;;;;;-0.79;100.00;101989.97;6002416;28;20039;-73
2023/03/02 08:31:48;;;;;;;54.43;10.50;;;;;;;-0.83;100.00;101993.53;6000953;28;20050;-73
2023/03/02 08:34:43;;;;;;;52.97;11.73;;;;;;;-0.80;100.00;101996.06;6002099;28;20197;-73
2023/03/02 08:37:38;;;;;;;42.80;11.10;;;;;;;-0.92;100.00;101989.44;6002357;28;20030;-74
2023/03/02 08:40:34;;;;;;;30.67;9.90;;;;;;;-0.89;100.00;102009.31;6001888;28;20086;-73
2023/03/02 08:43:29;;;;;;;30.07;10.80;;;;;;;-0.74;100.00;102004.56;6000690;28;20039;-72
2023/03/02 08:46:24;;;;;;;44.30;12.40;;;;;;;-0.80;100.00;102009.06;6001985;28;20506;-73
2023/03/02 08:49:19;;;;;;;44.93;9.83;;;;;;;-0.64;100.00;101995.59;6001961;28;20035;-73
2023/03/02 08:52:15;;;;;;;33.83;10.90;;;;;;;-0.69;100.00;102002.69;6001532;28;20596;-74
2023/03/02 08:55:10;;;;;;;39.93;10.07;;;;;;;-0.49;100.00;102004.69;6001915;28;20035;-73
2023/03/02 08:58:05;;;;;;;37.75;11.57;;;;;;;-0.78;100.00;101999.47;6001943;28;20089;-75
2023/03/02 09:01:01;;;;;;;32.53;9.83;;;;;;;-0.72;100.00;101997.56;6002101;28;20053;-73
2023/03/02 09:03:58;;;;;;;45.60;13.13;;;;;;;-0.69;100.00;102014.84;6001499;28;20390;-73
2023/03/02 09:06:53;;;;;;;38.22;11.32;;;;;;;-0.79;100.00;102005.59;6001999;28;20039;-74
2023/03/02 09:09:49;;;;;;;34.37;10.77;;;;;;;-0.52;100.00;102007.41;6001735;28;20041;-74
2023/03/02 09:12:44;;;;;;;28.97;10.77;;;;;;;-0.55;100.00;101999.69;5988383;28;20039;-74
2023/03/02 09:15:39;;;;;;;51.73;12.03;;;;;;;-0.64;100.00;102010.34;6001811;28;20465;-74
2023/03/02 09:18:35;;;;;;;33.23;10.20;;;;;;;-0.58;100.00;101993.69;6002049;28;20090;-73
2023/03/02 09:21:30;;;;;;;26.02;10.18;;;;;;;-0.52;100.00;101991.78;5996214;28;20039;-74
2023/03/02 09:24:25;;;;;;;31.27;10.70;;;;;;;-0.53;100.00;101995.28;5995847;28;20027;-74
2023/03/02 09:27:21;;;;;;;33.73;10.13;;;;;;;-0.36;100.00;101997.38;6001713;28;20039;-74
2023/03/02 09:30:16;;;;;;;28.07;10.37;;;;;;;-0.57;100.00;101990.22;6004008;28;20038;-73
2023/03/02 09:33:11;;;;;;;28.03;10.47;;;;;;;-0.18;100.00;101989.88;6005478;28;20042;-74
2023/03/02 09:36:10;;;;;;;24.57;9.90;;;;;;;-0.13;100.00;101993.19;6005749;28;20041;-73
2023/03/02 09:39:11;;;;;;;29.90;10.02;;;;;;;-0.17;100.00;102012.44;6005992;28;20033;-73
2023/03/02 09:42:18;;;;;;;35.38;11.02;;;;;;;-0.19;100.00;101995.97;6004876;28;20039;-73
2023/03/02 09:45:55;;;;;;;27.95;10.63;;;;;;;-0.16;100.00;102010.66;6004288;28;20034;-73
2023/03/02 09:49:15;;;;;;;31.58;9.80;;;;;;;-0.02;100.00;102005.88;5998164;28;20054;-73
2023/03/02 09:52:36;;;;;;;29.52;9.30;;;;;;;-0.24;100.00;102005.69;6004906;28;20545;-74
2023/03/02 09:55:34;;;;;;;30.20;9.60;;;;;;;0.09;100.00;102002.94;6020028;28;20478;-73
2023/03/02 09:58:34;;;;;;;32.00;10.23;;;;;;;0.22;100.00;101999.91;6005581;28;20035;-73
2023/03/02 10:01:37;;;;;;;27.42;10.02;;;;;;;0.46;100.00;101995.66;6003899;28;20042;-74
2023/03/02 10:04:41;;;;;;;28.63;9.60;;;;;;;0.67;100.00;101987.13;6003230;28;20027;-74
2023/03/02 10:07:37;;;;;;;25.52;9.70;;;;;;;0.75;100.00;101990.31;6004953;28;20035;-73
2023/03/02 10:10:36;;;;;;;26.38;10.15;;;;;;;0.21;100.00;101981.72;6005025;28;20038;-73
2023/03/02 10:13:51;;;;;;;26.70;11.40;;;;;;;0.74;100.00;101998.19;6002725;28;20034;-72
2023/03/02 10:16:48;;;;;;;22.30;7.60;;;;;;;0.93;100.00;102000.13;6004800;28;20039;-74
2023/03/02 10:19:54;;;;;;;26.92;10.18;;;;;;;0.80;100.00;101988.41;6003579;28;20714;-73
2023/03/02 10:22:58;;;;;;;23.23;8.73;;;;;;;0.76;100.00;102002.44;6003832;28;20034;-73
2023/03/02 10:26:15;;;;;;;21.70;8.57;;;;;;;0.45;100.00;102001.78;6002771;28;20046;-72
2023/03/02 10:29:37;;;;;;;26.83;9.68;;;;;;;0.41;100.00;101984.50;6004864;28;20031;-73
2023/03/02 10:33:03;;;;;;;30.77;10.15;;;;;;;0.32;100.00;101974.41;6018899;28;20030;-72
2023/03/02 10:36:00;;;;;;;32.90;13.02;;;;;;;0.43;100.00;101980.13;5994824;28;20117;-72
2023/03/02 10:38:56;;;;;;;25.58;9.77;;;;;;;0.77;100.00;101980.69;6004354;28;20545;-72
2023/03/02 10:42:05;;;;;;;28.15;9.60;;;;;;;0.80;100.00;101961.44;6001483;28;20042;-72
2023/03/02 10:45:10;;;;;;;28.95;10.20;;;;;;;0.62;100.00;101960.34;6002353;28;20046;-75
2023/03/02 10:48:09;;;;;;;30.92;10.55;;;;;;;0.84;100.00;101966.53;6003373;28;20034;-73
2023/03/02 10:51:04;;;;;;;27.55;9.95;;;;;;;0.86;100.00;101962.09;6004207;28;20550;-73
2023/03/02 10:54:03;;;;;;;29.83;10.83;;;;;;;1.00;100.00;101974.66;6003541;28;20030;-72
2023/03/02 10:57:01;;;;;;;28.13;8.73;;;;;;;1.06;100.00;101964.84;6003986;28;20059;-73
2023/03/02 11:00:21;;;;;;;26.63;10.02;;;;;;;0.85;100.00;101976.03;6003591;28;20043;-73
2023/03/02 11:03:20;;;;;;;32.55;12.13;;;;;;;0.99;100.00;101979.03;6002896;28;20062;-74
2023/03/02 11:06:18;;;;;;;30.55;11.80;;;;;;;1.13;100.00;101971.56;6003217;28;20418;-72
2023/03/02 11:09:14;;;;;;;28.20;11.20;;;;;;;0.84;100.00;101957.84;6003997;28;20127;-72
2023/03/02 11:12:15;;;;;;;32.35;10.77;;;;;;;1.36;100.00;101959.41;6002284;28;20039;-73
2023/03/02 11:15:36;;;;;;;29.90;11.30;;;;;;;1.51;100.00;101972.75;6003411;28;20093;-74
2023/03/02 11:18:41;;;;;;;28.13;10.43;;;;;;;1.31;100.00;101948.25;6017366;28;20046;-72
2023/03/02 11:21:39;;;;;;;30.00;11.20;;;;;;;1.16;100.00;101947.94;6002301;28;20222;-73
2023/03/02 11:24:38;;;;;;;25.85;10.57;;;;;;;1.01;100.00;101956.31;6001449;28;20096;-74
2023/03/02 11:27:35;;;;;;;25.38;10.30;;;;;;;1.25;100.00;101935.44;6001918;28;20062;-73
2023/03/02 11:30:33;;;;;;;30.35;10.90;;;;;;;1.25;100.00;101946.72;6002120;28;20034;-73
2023/03/02 11:33:51;;;;;;;23.23;9.18;;;;;;;1.40;100.00;101963.59;6001257;28;20049;-72
2023/03/02 11:36:53;;;;;;;27.52;9.48;;;;;;;1.55;100.00;101957.81;6018136;28;20038;-73
2023/03/02 11:39:48;;;;;;;31.25;11.10;;;;;;;1.18;100.00;101969.63;6018445;28;20090;-73
2023/03/02 11:42:44;;;;;;;30.98;10.68;;;;;;;1.45;100.00;101948.59;6001982;28;20034;-73
2023/03/02 11:45:46;;;;;;;27.25;11.23;;;;;;;1.22;100.00;101946.88;5998184;28;20145;-72
2023/03/02 11:48:43;;;;;;;22.08;8.90;;;;;;;1.22;100.00;101953.84;6006347;28;20078;-72
2023/03/02 11:51:41;;;;;;;19.83;8.60;;;;;;;1.35;100.00;101947.25;6000665;28;20042;-72
2023/03/02 11:54:45;;;;;;;26.95;8.25;;;;;;;1.45;100.00;101935.53;6001433;28;20031;-72
2023/03/02 11:57:51;;;;;;;21.70;7.72;;;;;;;1.43;100.00;101916.47;6001451;28;20039;-73
2023/03/02 12:00:47;;;;;;;22.45;8.88;;;;;;;1.27;100.00;101937.09;5998326;28;20042;-73
2023/03/02 12:03:44;;;;;;;25.08;8.45;;;;;;;1.51;100.00;101930.09;6011482;28;20078;-73
2023/03/02 12:06:41;;;;;;;24.17;8.95;;;;;;;1.85;100.00;101927.84;6000693;28;20038;-73
2023/03/02 12:09:36;;;;;;;24.15;9.43;;;;;;;1.79;100.00;101915.03;6002445;28;20111;-72
2023/03/02 12:12:46;;;;;;;20.40;9.70;;;;;;;1.76;100.00;101930.84;6001507;28;20051;-71
2023/03/02 12:15:46;;;;;;;23.33;9.63;;;;;;;1.80;100.00;101912.34;6002553;28;20027;-73
2023/03/02 12:18:45;;;;;;;19.88;8.25;;;;;;;1.85;100.00;101909.53;6002554;28;20102;-71
2023/03/02 12:21:45;;;;;;;20.52;8.27;;;;;;;2.12;100.00;101926.75;5995675;28;20476;-72
2023/03/02 12:24:43;;;;;;;17.65;7.88;;;;;;;1.66;100.00;101921.63;5996998;28;20031;-71
2023/03/02 12:27:40;;;;;;;22.20;8.80;;;;;;;1.70;100.00;101912.78;6002417;28;20031;-73
2023/03/02 12:30:36;;;;;;;23.83;10.50;;;;;;;1.47;100.00;101910.22;6002510;28;20043;-72
2023/03/02 12:33:31;;;;;;;22.23;9.17;;;;;;;1.47;100.00;101934.56;6001612;28;20039;-74
2023/03/02 12:36:38;;;;;;;27.43;9.87;;;;;;;1.25;100.00;101906.72;6002339;28;20058;-72
2023/03/02 12:40:12;;;;;;;26.67;9.20;;;;;;;1.50;100.00;101912.69;6000836;28;20402;-73
2023/03/02 12:43:30;;;;;;;21.85;9.07;;;;;;;1.54;100.00;101914.28;6016106;28;20394;-72
2023/03/02 12:46:35;;;;;;;23.38;8.90;;;;;;;1.45;100.00;101896.34;6000806;28;20037;-72
2023/03/02 12:49:44;;;;;;;24.05;8.63;;;;;;;1.61;100.00;101920.97;6002082;28;20039;-72
2023/03/02 12:52:39;;;;;;;19.75;8.30;;;;;;;1.67;100.00;101905.91;6000596;28;20039;-73
2023/03/02 12:55:36;;;;;;;21.10;8.90;;;;;;;1.65;100.00;101902.50;6001972;28;20501;-72
2023/03/02 12:58:32;;;;;;;22.88;9.20;;;;;;;1.75;100.00;101900.38;6001735;28;20036;-71
2023/03/02 13:01:30;;;;;;;21.08;8.38;;;;;;;1.82;100.00;101893.16;6002200;28;20034;-72
2023/03/02 13:04:26;;;;;;;43.60;17.98;;;;;;;1.72;100.00;101871.72;6002420;28;20557;-71
2023/03/02 13:07:25;;;;;;;29.70;11.53;;;;;;;1.88;100.00;101883.28;6006769;28;20035;-71
2023/03/02 13:10:26;;;;;;;24.42;9.73;;;;;;;1.59;100.00;101874.00;6006366;28;20027;-73
2023/03/02 13:13:26;;;;;;;23.85;10.02;;;;;;;1.70;100.00;101863.13;6003970;28;20117;-71
2023/03/02 13:16:24;;;;;;;23.30;9.32;;;;;;;1.72;100.00;101850.81;6006483;28;20031;-72
2023/03/02 13:19:20;;;;;;;26.85;10.07;;;;;;;1.75;100.00;101862.00;6006201;28;20038;-72
2023/03/02 13:22:15;;;;;;;25.52;10.20;;;;;;;1.76;100.00;101868.09;6004244;28;20121;-71
2023/03/02 13:25:30;;;;;;;25.48;10.30;;;;;;;1.67;100.00;101860.63;6005916;28;20030;-72
2023/03/02 13:28:35;;;;;;;25.58;10.32;;;;;;;1.64;100.00;101869.44;6006333;28;20521;-72